Hauptseite
METAR-TAF:

METAR-TAF

Flughäfen :

Pjöngjang, Nordkorea

Flughafen Sunan

Breite: 39-02N, Länge: 125-47E, Höhe: 36 m

METAR: fehlend

Zeit: 01:00 (16:30 UTC)

Prognose

Neuester Wetterbericht von vor 11 Stunden und 50 Minuten, um 04:40 UTC
Gültige Prognose vom 18 um 06 UTC bis 19 um 06 UTC
Wind 8 kt aus Nordwest
Sichtweite: 8000 m
Durchbrochene Bewölkung in der Höhe von 3000 ft
Zeitweise
vom 18 um 07 UTC bis 18 um 14 UTC
Sichtweite: 4000 m
Geschlossene Wolkendecke in der Höhe von 2700 ft
Schnee leicht
Übergehend zu
vom 18 um 18 UTC bis 18 um 20 UTC
Sichtweite 10 km oder mehr
keine Wolken unter 1500 m und keine Kumulonimbus oder Gewitterwolken

TAF: ZKPY 180440Z 1806/1906 31004MPS 8000 BKN030 TX00/1807Z TNM14/1822Z TEMPO 1807/1814 4000 -SN OVC027 BECMG 1818/1820 CAVOK

Wetterbeobachtungen und Prognosen von mehr als 4000 Flughäfen (METAR und TAF Bericht).

Die verfügbaren Stationen werden durch gelbe und rote Markierungen auf der Karte dargestellt.

Führen Sie die Maus auf sie, um den Namen der Station zu sehen.

Darauf klicken, um die Beobachtung von Wetterbeobachtungen und Prognosen zu sehen.

Um die Karte zu ändern : klicken Sie auf den grünen Tasten mit einem schwarzen Kreuz Zum Vergrößern, auf den grünen Button mit einem Gedankenstrich zu verkleinern, oder auf die grünen Pfeile für benachbarte Karten.


METAR-TAF: